FredonyerEastRWIS Atmospheric Data: 04/18/2019 Summary  Detailed Graphs  Station List

  Temperature     Wind Precipitation Visibility
Timestamp Air Wet
Bulb
Dew-
point
24-hr
Max
24-hr
Min
Relative
Humidity
Atmospheric
Pressure
Avg
Speed
Avg
Dir
Spot
Speed
Spot
Dir
Max
Speed
Max
Dir
  Rate Situation Start End 1 hr 3 hr 6 hr 12 hr 24 hr   Situation
Date Time °F °F °F °F °F % in Hg mph ° mph ° mph ° Y/N in/hr text Date Time Date Time in in in in in mi text
04/18/2019 12:08 AM 35.96 35.42 34.70 66.20 27.68 94.0 Not Reported 0.67 W 0.22 W 2.01 NW No 0.000 No Precipitation 04/16/2019 06:19 AM 04/16/2019 06:24 AM 0.000 0.000 0.000 0.000 0.000 Not Reported Not Reported
04/18/2019 12:23 AM 35.42 34.88 34.16 66.20 27.68 95.0 Not Reported 1.12 NW 0.45 NW 1.57 NW No 0.000 No Precipitation 04/16/2019 06:19 AM 04/16/2019 06:24 AM 0.000 0.000 0.000 0.000 0.000 Not Reported Not Reported
04/18/2019 12:38 AM 35.60 35.24 34.52 66.20 27.68 95.0 Not Reported 0.00 N 0.00 W 2.01 N No 0.000 No Precipitation 04/16/2019 06:19 AM 04/16/2019 06:24 AM 0.000 0.000 0.000 0.000 0.000 Not Reported Not Reported
04/18/2019 12:53 AM 35.42 34.88 34.34 66.20 27.68 95.0 Not Reported 2.01 N 0.22 NE 2.01 NW No 0.000 No Precipitation 04/16/2019 06:19 AM 04/16/2019 06:24 AM 0.000 0.000 0.000 0.000 0.000 Not Reported Not Reported
04/18/2019 01:08 AM 35.24 34.88 34.34 66.20 27.68 96.0 Not Reported 0.45 NW 0.45 NW 2.46 N No 0.000 No Precipitation 04/16/2019 06:19 AM 04/16/2019 06:24 AM 0.000 0.000 0.000 0.000 0.000 Not Reported Not Reported
04/18/2019 01:23 AM 35.06 34.70 34.16 66.20 27.68 96.0 Not Reported 1.12 S 0.00 S 1.34 NW No 0.000 No Precipitation 04/16/2019 06:19 AM 04/16/2019 06:24 AM 0.000 0.000 0.000 0.000 0.000 Not Reported Not Reported
04/18/2019 01:38 AM 34.88 34.52 33.98 66.20 27.68 97.0 Not Reported 0.45 NW 1.12 NW 1.34 S No 0.000 No Precipitation 04/16/2019 06:19 AM 04/16/2019 06:24 AM 0.000 0.000 0.000 0.000 0.000 Not Reported Not Reported
04/18/2019 01:53 AM 34.70 34.34 33.98 66.20 27.68 97.0 Not Reported 0.00 W 0.00 W 1.12 NW No 0.000 No Precipitation 04/16/2019 06:19 AM 04/16/2019 06:24 AM 0.000 0.000 0.000 0.000 0.000 Not Reported Not Reported
04/18/2019 02:08 AM 34.34 34.16 33.80 66.20 27.68 97.0 Not Reported 0.22 W 0.89 W 0.00 W No 0.000 No Precipitation 04/16/2019 06:19 AM 04/16/2019 06:24 AM 0.000 0.000 0.000 0.000 0.000 Not Reported Not Reported
04/18/2019 02:23 AM 34.34 33.98 33.80 66.20 27.68 97.0 Not Reported 0.22 NW 0.89 W 1.57 NW No 0.000 No Precipitation 04/16/2019 06:19 AM 04/16/2019 06:24 AM 0.000 0.000 0.000 0.000 0.000 Not Reported Not Reported
04/18/2019 02:38 AM 34.34 34.16 33.80 66.20 27.68 98.0 Not Reported 0.00 NW 0.45 NW 1.12 NW No 0.000 No Precipitation 04/16/2019 06:19 AM 04/16/2019 06:24 AM 0.000 0.000 0.000 0.000 0.000 Not Reported Not Reported
04/18/2019 02:53 AM 33.98 33.80 33.62 66.20 27.68 98.0 Not Reported 0.00 N 0.67 NW 0.45 NW No 0.000 No Precipitation 04/16/2019 06:19 AM 04/16/2019 06:24 AM 0.000 0.000 0.000 0.000 0.000 Not Reported Not Reported
04/18/2019 03:08 AM 33.98 33.80 33.44 66.20 27.68 98.0 Not Reported 0.67 N 0.67 N 0.89 NW No 0.000 No Precipitation 04/16/2019 06:19 AM 04/16/2019 06:24 AM 0.000 0.000 0.000 0.000 0.000 Not Reported Not Reported
04/18/2019 03:23 AM 33.98 33.80 33.62 66.20 27.68 98.0 Not Reported 0.00 N 0.00 N 1.57 NW No 0.000 No Precipitation 04/16/2019 06:19 AM 04/16/2019 06:24 AM 0.000 0.000 0.000 0.000 0.000 Not Reported Not Reported
04/18/2019 03:38 AM 33.62 33.62 33.44 66.20 27.68 98.0 Not Reported 0.00 N 0.45 N 0.89 NW No 0.000 No Precipitation 04/16/2019 06:19 AM 04/16/2019 06:24 AM 0.000 0.000 0.000 0.000 0.000 Not Reported Not Reported
04/18/2019 03:53 AM 33.62 33.44 33.26 66.20 27.68 98.0 Not Reported 0.22 N 0.45 N 0.67 S No 0.000 No Precipitation 04/16/2019 06:19 AM 04/16/2019 06:24 AM 0.000 0.000 0.000 0.000 0.000 Not Reported Not Reported
04/18/2019 04:08 AM 33.44 33.26 33.08 66.20 27.68 98.0 Not Reported 0.00 N 0.00 N 1.12 NW No 0.000 No Precipitation 04/16/2019 06:19 AM 04/16/2019 06:24 AM 0.000 0.000 0.000 0.000 0.000 Not Reported Not Reported
04/18/2019 04:23 AM 33.44 33.26 33.26 66.20 27.68 99.0 Not Reported 0.89 NW 0.00 NW 0.67 NW No 0.000 No Precipitation 04/16/2019 06:19 AM 04/16/2019 06:24 AM 0.000 0.000 0.000 0.000 0.000 Not Reported Not Reported
04/18/2019 04:38 AM 33.44 33.26 33.08 66.20 27.68 99.0 Not Reported 0.45 NW 0.00 N 1.57 N No 0.000 No Precipitation 04/16/2019 06:19 AM 04/16/2019 06:24 AM 0.000 0.000 0.000 0.000 0.000 Not Reported Not Reported
04/18/2019 04:53 AM 33.26 33.08 33.08 66.20 27.68 99.0 Not Reported 1.12 N 0.67 N 0.00 N No 0.000 No Precipitation 04/16/2019 06:19 AM 04/16/2019 06:24 AM 0.000 0.000 0.000 0.000 0.000 Not Reported Not Reported
04/18/2019 05:08 AM 33.08 32.90 32.90 66.20 27.68 99.0 Not Reported 0.67 N 0.00 N 1.34 NW No 0.000 No Precipitation 04/16/2019 06:19 AM 04/16/2019 06:24 AM 0.000 0.000 0.000 0.000 0.000 Not Reported Not Reported
04/18/2019 05:23 AM 32.90 32.90 32.72 66.20 27.68 99.0 Not Reported 0.00 W 0.00 W 0.67 N No 0.000 No Precipitation 04/16/2019 06:19 AM 04/16/2019 06:24 AM 0.000 0.000 0.000 0.000 0.000 Not Reported Not Reported
04/18/2019 05:38 AM 32.72 32.72 32.54 66.20 28.04 99.0 Not Reported 0.00 N 0.00 NW 0.89 N No 0.000 No Precipitation 04/16/2019 06:19 AM 04/16/2019 06:24 AM 0.000 0.000 0.000 0.000 0.000 Not Reported Not Reported
04/18/2019 05:53 AM 32.72 32.54 32.54 66.20 28.04 99.0 Not Reported 0.22 NW 1.34 NW 0.67 NW No 0.000 No Precipitation 04/16/2019 06:19 AM 04/16/2019 06:24 AM 0.000 0.000 0.000 0.000 0.000 Not Reported Not Reported
04/18/2019 06:08 AM 32.90 32.90 32.90 66.20 28.04 99.0 Not Reported 0.00 N 0.00 NW 1.34 NW No 0.000 No Precipitation 04/16/2019 06:19 AM 04/16/2019 06:24 AM 0.000 0.000 0.000 0.000 0.000 Not Reported Not Reported
04/18/2019 06:23 AM 32.72 32.72 32.54 66.20 28.04 99.0 Not Reported 0.00 N 0.00 N 1.57 N No 0.000 No Precipitation 04/16/2019 06:19 AM 04/16/2019 06:24 AM 0.000 0.000 0.000 0.000 0.000 Not Reported Not Reported
04/18/2019 06:38 AM 32.72 32.54 32.54 66.20 28.40 99.0 Not Reported 0.00 NW 1.57 NW 1.79 NW No 0.000 No Precipitation 04/16/2019 06:19 AM 04/16/2019 06:24 AM 0.000 0.000 0.000 0.000 0.000 Not Reported Not Reported
04/18/2019 06:53 AM 32.90 32.90 32.90 66.20 28.94 99.0 Not Reported 0.89 N 0.67 N 0.89 N No 0.000 No Precipitation 04/16/2019 06:19 AM 04/16/2019 06:24 AM 0.000 0.000 0.000 0.000 0.000 Not Reported Not Reported
04/18/2019 07:08 AM 33.62 33.44 33.44 66.20 29.30 99.0 Not Reported 0.00 N 0.00 N 0.89 N No 0.000 No Precipitation 04/16/2019 06:19 AM 04/16/2019 06:24 AM 0.000 0.000 0.000 0.000 0.000 Not Reported Not Reported
04/18/2019 07:23 AM 34.52 34.52 34.34 66.20 30.20 99.0 Not Reported 0.00 N 0.45 N 0.89 N No 0.000 No Precipitation 04/16/2019 06:19 AM 04/16/2019 06:24 AM 0.000 0.000 0.000 0.000 0.000 Not Reported Not Reported
04/18/2019 07:38 AM 36.14 36.14 36.14 66.20 31.28 99.0 Not Reported 0.00 N 0.00 E 0.67 N No 0.000 No Precipitation 04/16/2019 06:19 AM 04/16/2019 06:24 AM 0.000 0.000 0.000 0.000 0.000 Not Reported Not Reported
04/18/2019 07:53 AM 38.30 38.30 38.30 66.20 32.54 99.0 Not Reported 0.00 N 1.12 SE 0.45 NE No 0.000 No Precipitation 04/16/2019 06:19 AM 04/16/2019 06:24 AM 0.000 0.000 0.000 0.000 0.000 Not Reported Not Reported
04/18/2019 08:08 AM 40.10 40.10 40.10 66.20 32.54 99.0 Not Reported 0.00 N 0.00 SE 1.79 SE No 0.000 No Precipitation 04/16/2019 06:19 AM 04/16/2019 06:24 AM 0.000 0.000 0.000 0.000 0.000 Not Reported Not Reported
04/18/2019 08:23 AM 42.98 42.62 42.08 66.20 32.54 95.0 Not Reported 0.00 SE 0.00 SE 1.34 SE No 0.000 No Precipitation 04/16/2019 06:19 AM 04/16/2019 06:24 AM 0.000 0.000 0.000 0.000 0.000 Not Reported Not Reported
04/18/2019 08:38 AM 46.76 44.24 41.72 66.20 32.54 82.0 Not Reported 1.34 N 0.22 E 0.67 NE No 0.000 No Precipitation 04/16/2019 06:19 AM 04/16/2019 06:24 AM 0.000 0.000 0.000 0.000 0.000 Not Reported Not Reported
04/18/2019 08:53 AM 50.72 45.32 39.56 66.20 32.54 65.0 Not Reported 2.68 NE 0.00 S 3.58 N No 0.000 No Precipitation 04/16/2019 06:19 AM 04/16/2019 06:24 AM 0.000 0.000 0.000 0.000 0.000 Not Reported Not Reported
04/18/2019 09:08 AM 50.72 44.78 38.12 66.20 32.54 61.0 Not Reported 3.58 SE 2.91 S 3.58 NE No 0.000 No Precipitation 04/16/2019 06:19 AM 04/16/2019 06:24 AM 0.000 0.000 0.000 0.000 0.000 Not Reported Not Reported
04/18/2019 09:23 AM 53.60 46.22 38.48 66.20 32.54 56.0 Not Reported 4.70 SE 2.24 SE 6.04 S No 0.000 No Precipitation 04/16/2019 06:19 AM 04/16/2019 06:24 AM 0.000 0.000 0.000 0.000 0.000 Not Reported Not Reported
04/18/2019 09:38 AM 54.86 46.22 36.86 66.20 32.54 50.0 Not Reported 3.13 SE 3.58 N 6.93 E No 0.000 No Precipitation 04/16/2019 06:19 AM 04/16/2019 06:24 AM 0.000 0.000 0.000 0.000 0.000 Not Reported Not Reported
04/18/2019 09:53 AM 56.12 46.94 37.22 66.20 32.54 49.0 Not Reported 5.14 NE 2.46 NE 6.93 SE No 0.000 No Precipitation 04/16/2019 06:19 AM 04/16/2019 06:24 AM 0.000 0.000 0.000 0.000 0.000 Not Reported Not Reported
04/18/2019 10:09 AM 57.02 47.48 38.30 66.20 32.54 49.0 Not Reported 3.36 NE 2.01 N 6.71 E No 0.000 No Precipitation 04/16/2019 06:19 AM 04/16/2019 06:24 AM 0.000 0.000 0.000 0.000 0.000 Not Reported Not Reported
04/18/2019 10:23 AM 58.28 48.38 38.12 66.20 32.54 46.0 Not Reported 2.46 E 0.67 E 5.82 NE No 0.000 No Precipitation 04/16/2019 06:19 AM 04/16/2019 06:24 AM 0.000 0.000 0.000 0.000 0.000 Not Reported Not Reported
04/18/2019 10:38 AM 58.64 48.38 37.94 66.20 32.54 46.0 Not Reported 2.68 E 0.45 E 6.04 N No 0.000 No Precipitation 04/16/2019 06:19 AM 04/16/2019 06:24 AM 0.000 0.000 0.000 0.000 0.000 Not Reported Not Reported
04/18/2019 10:53 AM 60.44 48.92 37.40 66.20 32.54 42.0 Not Reported 2.01 NE 4.70 E 4.70 E No 0.000 No Precipitation 04/16/2019 06:19 AM 04/16/2019 06:24 AM 0.000 0.000 0.000 0.000 0.000 Not Reported Not Reported
04/18/2019 11:08 AM 61.16 49.82 38.66 66.20 32.54 43.0 Not Reported 2.01 NE 0.67 NW 5.37 NE No 0.000 No Precipitation 04/16/2019 06:19 AM 04/16/2019 06:24 AM 0.000 0.000 0.000 0.000 0.000 Not Reported Not Reported
04/18/2019 11:23 AM 61.34 49.64 37.94 66.20 32.54 41.0 Not Reported 2.24 NE 4.25 E 9.17 NE No 0.000 No Precipitation 04/16/2019 06:19 AM 04/16/2019 06:24 AM 0.000 0.000 0.000 0.000 0.000 Not Reported Not Reported
04/18/2019 11:38 AM 62.06 49.82 37.40 66.20 32.54 40.0 Not Reported 4.03 E 2.24 S 6.04 N No 0.000 No Precipitation 04/16/2019 06:19 AM 04/16/2019 06:24 AM 0.000 0.000 0.000 0.000 0.000 Not Reported Not Reported
04/18/2019 11:53 AM 61.70 50.00 38.66 66.20 32.54 42.0 Not Reported 4.25 SE 2.68 N 5.59 SE No 0.000 No Precipitation 04/16/2019 06:19 AM 04/16/2019 06:24 AM 0.000 0.000 0.000 0.000 0.000 Not Reported Not Reported
04/18/2019 12:08 PM 63.50 50.36 37.40 66.20 32.54 38.0 Not Reported 2.46 SE 2.91 NE 7.16 NW No 0.000 No Precipitation 04/16/2019 06:19 AM 04/16/2019 06:24 AM 0.000 0.000 0.000 0.000 0.000 Not Reported Not Reported
04/18/2019 12:23 PM 64.22 50.72 37.58 66.20 32.54 37.0 Not Reported 2.24 NW 1.57 W 3.80 NE No 0.000 No Precipitation 04/16/2019 06:19 AM 04/16/2019 06:24 AM 0.000 0.000 0.000 0.000 0.000 Not Reported Not Reported
04/18/2019 12:38 PM 64.22 50.18 35.78 66.20 32.54 34.0 Not Reported 5.37 N 8.95 N 4.70 NE No 0.000 No Precipitation 04/16/2019 06:19 AM 04/16/2019 06:24 AM 0.000 0.000 0.000 0.000 0.000 Not Reported Not Reported
04/18/2019 12:53 PM 65.30 50.90 36.32 66.20 32.54 34.0 Not Reported 3.58 SE 4.92 NE 8.50 S No 0.000 No Precipitation 04/16/2019 06:19 AM 04/16/2019 06:24 AM 0.000 0.000 0.000 0.000 0.000 Not Reported Not Reported
04/18/2019 01:08 PM 65.66 50.72 35.42 66.20 32.54 32.0 Not Reported 3.80 E 5.82 NE 5.37 SE No 0.000 No Precipitation 04/16/2019 06:19 AM 04/16/2019 06:24 AM 0.000 0.000 0.000 0.000 0.000 Not Reported Not Reported
04/18/2019 01:23 PM 66.20 52.16 39.02 66.74 32.54 36.0 Not Reported 1.79 S 4.92 SE 5.59 NE No 0.000 No Precipitation 04/16/2019 06:19 AM 04/16/2019 06:24 AM 0.000 0.000 0.000 0.000 0.000 Not Reported Not Reported
04/18/2019 01:38 PM 66.92 51.98 37.40 66.92 32.54 33.0 Not Reported 1.79 NW 1.34 SE 6.49 NE No 0.000 No Precipitation 04/16/2019 06:19 AM 04/16/2019 06:24 AM 0.000 0.000 0.000 0.000 0.000 Not Reported Not Reported
04/18/2019 01:53 PM 66.38 51.44 36.50 68.00 32.54 33.0 Not Reported 1.57 N 5.37 N 5.59 N No 0.000 No Precipitation 04/16/2019 06:19 AM 04/16/2019 06:24 AM 0.000 0.000 0.000 0.000 0.000 Not Reported Not Reported
04/18/2019 02:08 PM 67.28 51.80 36.50 68.36 32.54 32.0 Not Reported 4.25 N 1.79 N 5.37 NW No 0.000 No Precipitation 04/16/2019 06:19 AM 04/16/2019 06:24 AM 0.000 0.000 0.000 0.000 0.000 Not Reported Not Reported
04/18/2019 02:23 PM 68.54 52.52 36.68 68.90 32.54 30.0 Not Reported 2.01 NE 1.79 N 5.14 E No 0.000 No Precipitation 04/16/2019 06:19 AM 04/16/2019 06:24 AM 0.000 0.000 0.000 0.000 0.000 Not Reported Not Reported
04/18/2019 02:38 PM 68.18 52.88 38.30 68.90 32.54 33.0 Not Reported 2.68 N 4.25 E 4.47 SE No 0.000 No Precipitation 04/16/2019 06:19 AM 04/16/2019 06:24 AM 0.000 0.000 0.000 0.000 0.000 Not Reported Not Reported
04/18/2019 02:53 PM 69.98 53.42 37.94 70.88 32.54 30.0 Not Reported 1.79 E 2.24 N 5.82 SE No 0.000 No Precipitation 04/16/2019 06:19 AM 04/16/2019 06:24 AM 0.000 0.000 0.000 0.000 0.000 Not Reported Not Reported
04/18/2019 03:08 PM 68.36 53.06 38.48 70.88 32.54 33.0 Not Reported 1.34 SW 2.68 E 6.71 SE No 0.000 No Precipitation 04/16/2019 06:19 AM 04/16/2019 06:24 AM 0.000 0.000 0.000 0.000 0.000 Not Reported Not Reported
04/18/2019 03:23 PM 70.34 53.96 38.66 70.88 32.54 31.0 Not Reported 2.46 NE 1.57 SE 4.92 N No 0.000 No Precipitation 04/16/2019 06:19 AM 04/16/2019 06:24 AM 0.000 0.000 0.000 0.000 0.000 Not Reported Not Reported
04/18/2019 03:38 PM 69.62 53.60 39.02 70.88 32.54 32.0 Not Reported 2.01 NE 1.79 SE 7.83 SE No 0.000 No Precipitation 04/16/2019 06:19 AM 04/16/2019 06:24 AM 0.000 0.000 0.000 0.000 0.000 Not Reported Not Reported
04/18/2019 03:53 PM 71.06 54.14 38.48 71.06 32.54 30.0 Not Reported 2.24 E 2.68 SE 3.36 E No 0.000 No Precipitation 04/16/2019 06:19 AM 04/16/2019 06:24 AM 0.000 0.000 0.000 0.000 0.000 Not Reported Not Reported
04/18/2019 04:08 PM 70.34 53.78 38.30 71.60 32.54 30.0 Not Reported 4.47 SE 3.80 S 4.25 NE No 0.000 No Precipitation 04/16/2019 06:19 AM 04/16/2019 06:24 AM 0.000 0.000 0.000 0.000 0.000 Not Reported Not Reported
04/18/2019 04:23 PM 71.60 54.32 38.48 71.60 32.54 29.0 Not Reported 3.58 SE 2.91 S 6.04 SE No 0.000 No Precipitation 04/16/2019 06:19 AM 04/16/2019 06:24 AM 0.000 0.000 0.000 0.000 0.000 Not Reported Not Reported
04/18/2019 04:38 PM 70.34 52.70 35.24 72.50 32.54 27.0 Not Reported 3.36 S 5.37 S 6.04 SE No 0.000 No Precipitation 04/16/2019 06:19 AM 04/16/2019 06:24 AM 0.000 0.000 0.000 0.000 0.000 Not Reported Not Reported
04/18/2019 04:53 PM 70.34 51.80 32.36 72.50 32.54 24.0 Not Reported 3.80 SW 2.01 NW 7.83 SE No 0.000 No Precipitation 04/16/2019 06:19 AM 04/16/2019 06:24 AM 0.000 0.000 0.000 0.000 0.000 Not Reported Not Reported
04/18/2019 05:08 PM 67.46 53.06 39.92 72.50 32.54 36.0 Not Reported 2.46 W 0.45 W 6.04 SW No 0.000 No Precipitation 04/16/2019 06:19 AM 04/16/2019 06:24 AM 0.000 0.000 0.000 0.000 0.000 Not Reported Not Reported
04/18/2019 05:23 PM 68.18 51.08 33.08 72.50 32.54 27.0 Not Reported 5.14 W 2.46 S 6.71 NW No 0.000 No Precipitation 04/16/2019 06:19 AM 04/16/2019 06:24 AM 0.000 0.000 0.000 0.000 0.000 Not Reported Not Reported
04/18/2019 05:38 PM 61.88 48.38 33.62 72.50 32.54 34.0 Not Reported 2.68 W 2.01 W 6.71 NW No 0.000 No Precipitation 04/16/2019 06:19 AM 04/16/2019 06:24 AM 0.000 0.000 0.000 0.000 0.000 Not Reported Not Reported
04/18/2019 05:53 PM 59.90 48.92 37.94 72.50 32.54 43.0 Not Reported 3.13 NW 3.36 NW 5.14 S No 0.000 No Precipitation 04/16/2019 06:19 AM 04/16/2019 06:24 AM 0.000 0.000 0.000 0.000 0.000 Not Reported Not Reported
04/18/2019 06:08 PM 54.50 46.58 38.30 72.50 32.54 54.0 Not Reported 2.01 NW 1.57 N 4.47 NW No 0.000 No Precipitation 04/16/2019 06:19 AM 04/16/2019 06:24 AM 0.000 0.000 0.000 0.000 0.000 Not Reported Not Reported
04/18/2019 06:23 PM 51.80 45.32 38.12 72.50 32.54 59.0 Not Reported 2.01 NW 2.46 NW 4.03 NW No 0.000 No Precipitation 04/16/2019 06:19 AM 04/16/2019 06:24 AM 0.000 0.000 0.000 0.000 0.000 Not Reported Not Reported
04/18/2019 06:38 PM 48.74 43.52 37.94 72.50 32.54 66.0 Not Reported 2.24 NW 1.79 NW 2.91 NW No 0.000 No Precipitation 04/16/2019 06:19 AM 04/16/2019 06:24 AM 0.000 0.000 0.000 0.000 0.000 Not Reported Not Reported
04/18/2019 06:53 PM 47.12 42.80 37.94 72.50 32.54 70.0 Not Reported 0.22 NW 0.67 NW 2.68 NW No 0.000 No Precipitation 04/16/2019 06:19 AM 04/16/2019 06:24 AM 0.000 0.000 0.000 0.000 0.000 Not Reported Not Reported
04/18/2019 07:08 PM 45.86 41.90 37.40 72.50 32.54 72.0 Not Reported 2.24 W 2.91 NW 2.24 W No 0.000 No Precipitation 04/16/2019 06:19 AM 04/16/2019 06:24 AM 0.000 0.000 0.000 0.000 0.000 Not Reported Not Reported
04/18/2019 07:23 PM 44.06 40.82 37.04 72.50 32.54 75.0 Not Reported 1.79 W 2.01 NW 3.36 W No 0.000 No Precipitation 04/16/2019 06:19 AM 04/16/2019 06:24 AM 0.000 0.000 0.000 0.000 0.000 Not Reported Not Reported
04/18/2019 07:38 PM 43.70 40.64 36.68 72.50 32.54 76.0 Not Reported 2.01 W 2.01 W 2.46 W No 0.000 No Precipitation 04/16/2019 06:19 AM 04/16/2019 06:24 AM 0.000 0.000 0.000 0.000 0.000 Not Reported Not Reported
04/18/2019 07:53 PM 43.16 40.28 37.04 72.50 32.54 78.0 Not Reported 1.12 W 0.67 W 2.24 W No 0.000 No Precipitation 04/16/2019 06:19 AM 04/16/2019 06:24 AM 0.000 0.000 0.000 0.000 0.000 Not Reported Not Reported
04/18/2019 08:08 PM 42.62 39.92 36.68 72.50 32.54 79.0 Not Reported 1.34 NW 1.34 NW 1.79 NW No 0.000 No Precipitation 04/16/2019 06:19 AM 04/16/2019 06:24 AM 0.000 0.000 0.000 0.000 0.000 Not Reported Not Reported
04/18/2019 08:23 PM 42.62 39.92 36.86 72.50 32.54 80.0 Not Reported 0.00 N 0.67 N 1.57 NW No 0.000 No Precipitation 04/16/2019 06:19 AM 04/16/2019 06:24 AM 0.000 0.000 0.000 0.000 0.000 Not Reported Not Reported
04/18/2019 08:38 PM 42.26 39.74 36.68 72.50 32.54 80.0 Not Reported 0.00 N 0.89 N 1.12 N No 0.000 No Precipitation 04/16/2019 06:19 AM 04/16/2019 06:24 AM 0.000 0.000 0.000 0.000 0.000 Not Reported Not Reported
04/18/2019 08:53 PM 42.08 39.74 36.86 72.50 32.54 81.0 Not Reported 0.00 N 0.22 N 1.34 N No 0.000 No Precipitation 04/16/2019 06:19 AM 04/16/2019 06:24 AM 0.000 0.000 0.000 0.000 0.000 Not Reported Not Reported
04/18/2019 09:08 PM 41.72 39.20 36.32 72.50 32.54 81.0 Not Reported 0.45 N 0.67 N 1.34 N No 0.000 No Precipitation 04/16/2019 06:19 AM 04/16/2019 06:24 AM 0.000 0.000 0.000 0.000 0.000 Not Reported Not Reported
04/18/2019 09:23 PM 41.18 38.84 35.96 72.50 32.54 81.0 Not Reported 0.89 N 0.89 NW 1.12 NW No 0.000 No Precipitation 04/16/2019 06:19 AM 04/16/2019 06:24 AM 0.000 0.000 0.000 0.000 0.000 Not Reported Not Reported
04/18/2019 09:38 PM 41.18 38.84 35.96 72.50 32.54 81.0 Not Reported 1.12 NW 1.34 NW 1.34 NW No 0.000 No Precipitation 04/16/2019 06:19 AM 04/16/2019 06:24 AM 0.000 0.000 0.000 0.000 0.000 Not Reported Not Reported
04/18/2019 09:53 PM 40.82 38.48 35.60 72.50 32.54 81.0 Not Reported 0.67 NW 0.45 N 1.79 N No 0.000 No Precipitation 04/16/2019 06:19 AM 04/16/2019 06:24 AM 0.000 0.000 0.000 0.000 0.000 Not Reported Not Reported
04/18/2019 10:08 PM 40.10 37.94 35.24 72.50 32.54 82.0 Not Reported 0.67 W 1.12 W 1.12 NW No 0.000 No Precipitation 04/16/2019 06:19 AM 04/16/2019 06:24 AM 0.000 0.000 0.000 0.000 0.000 Not Reported Not Reported
04/18/2019 10:23 PM 39.92 37.58 34.70 72.50 32.54 81.0 Not Reported 0.67 W 0.45 W 1.79 NW No 0.000 No Precipitation 04/16/2019 06:19 AM 04/16/2019 06:24 AM 0.000 0.000 0.000 0.000 0.000 Not Reported Not Reported
04/18/2019 10:38 PM 39.02 37.04 34.34 72.50 32.54 83.0 Not Reported 0.67 W 0.67 W 1.34 W No 0.000 No Precipitation 04/16/2019 06:19 AM 04/16/2019 06:24 AM 0.000 0.000 0.000 0.000 0.000 Not Reported Not Reported
04/18/2019 10:53 PM 39.02 37.04 34.34 72.50 32.54 83.0 Not Reported 0.00 W 0.67 W 1.57 W No 0.000 No Precipitation 04/16/2019 06:19 AM 04/16/2019 06:24 AM 0.000 0.000 0.000 0.000 0.000 Not Reported Not Reported
04/18/2019 11:08 PM 38.30 36.68 34.52 72.50 32.54 86.0 Not Reported 0.89 NW 0.89 NW 1.34 NW No 0.000 No Precipitation 04/16/2019 06:19 AM 04/16/2019 06:24 AM 0.000 0.000 0.000 0.000 0.000 Not Reported Not Reported
04/18/2019 11:23 PM 38.48 36.68 34.52 72.50 32.54 86.0 Not Reported 0.45 N 1.57 NW 1.57 W No 0.000 No Precipitation 04/16/2019 06:19 AM 04/16/2019 06:24 AM 0.000 0.000 0.000 0.000 0.000 Not Reported Not Reported
04/18/2019 11:38 PM 38.66 37.04 34.70 72.50 32.54 85.0 Not Reported 0.45 N 0.00 N 1.57 NW No 0.000 No Precipitation 04/16/2019 06:19 AM 04/16/2019 06:24 AM 0.000 0.000 0.000 0.000 0.000 Not Reported Not Reported
04/18/2019 11:53 PM 38.84 37.22 34.88 72.50 32.54 85.0 Not Reported 1.12 W 0.89 NW 1.34 NW No 0.000 No Precipitation 04/16/2019 06:19 AM 04/16/2019 06:24 AM 0.000 0.000 0.000 0.000 0.000 Not Reported Not Reported